sensor_id;sensor_type;location;lat;lon;timestamp;P1;durP1;ratioP1;P2;durP2;ratioP2
14121;SDS011;7139;48.114;11.442;2022-12-07T00:01:17;9.97;;;8.93;;
14121;SDS011;7139;48.114;11.442;2022-12-07T00:03:47;10.17;;;9.17;;
14121;SDS011;7139;48.114;11.442;2022-12-07T00:06:15;12.67;;;10.23;;
14121;SDS011;7139;48.114;11.442;2022-12-07T00:08:42;10.27;;;9.20;;
14121;SDS011;7139;48.114;11.442;2022-12-07T00:11:12;9.67;;;8.67;;
14121;SDS011;7139;48.114;11.442;2022-12-07T00:13:41;9.57;;;8.57;;
14121;SDS011;7139;48.114;11.442;2022-12-07T00:16:09;10.27;;;8.67;;
14121;SDS011;7139;48.114;11.442;2022-12-07T00:18:38;10.40;;;9.30;;
14121;SDS011;7139;48.114;11.442;2022-12-07T00:21:06;9.47;;;8.47;;
14121;SDS011;7139;48.114;11.442;2022-12-07T00:23:35;10.37;;;8.93;;
14121;SDS011;7139;48.114;11.442;2022-12-07T00:26:05;10.57;;;9.33;;
14121;SDS011;7139;48.114;11.442;2022-12-07T00:28:34;9.87;;;8.87;;
14121;SDS011;7139;48.114;11.442;2022-12-07T00:31:03;9.97;;;8.93;;
14121;SDS011;7139;48.114;11.442;2022-12-07T00:33:30;9.50;;;8.50;;
14121;SDS011;7139;48.114;11.442;2022-12-07T00:35:58;9.63;;;8.63;;
14121;SDS011;7139;48.114;11.442;2022-12-07T00:38:27;8.93;;;8.03;;
14121;SDS011;7139;48.114;11.442;2022-12-07T00:40:55;8.80;;;7.90;;
14121;SDS011;7139;48.114;11.442;2022-12-07T00:43:22;9.53;;;8.53;;
14121;SDS011;7139;48.114;11.442;2022-12-07T00:45:51;8.53;;;7.73;;
14121;SDS011;7139;48.114;11.442;2022-12-07T00:48:18;9.23;;;8.33;;
14121;SDS011;7139;48.114;11.442;2022-12-07T00:50:45;9.23;;;8.33;;
14121;SDS011;7139;48.114;11.442;2022-12-07T00:53:12;8.87;;;8.00;;
14121;SDS011;7139;48.114;11.442;2022-12-07T00:55:39;9.50;;;8.43;;
14121;SDS011;7139;48.114;11.442;2022-12-07T00:58:06;9.57;;;8.30;;
14121;SDS011;7139;48.114;11.442;2022-12-07T01:00:33;9.07;;;8.17;;
14121;SDS011;7139;48.114;11.442;2022-12-07T01:03:03;8.67;;;7.87;;
14121;SDS011;7139;48.114;11.442;2022-12-07T01:05:30;8.90;;;8.00;;
14121;SDS011;7139;48.114;11.442;2022-12-07T01:07:57;8.97;;;8.07;;
14121;SDS011;7139;48.114;11.442;2022-12-07T01:10:24;9.60;;;8.60;;
14121;SDS011;7139;48.114;11.442;2022-12-07T01:12:51;9.13;;;8.07;;
14121;SDS011;7139;48.114;11.442;2022-12-07T01:15:18;9.57;;;8.57;;
14121;SDS011;7139;48.114;11.442;2022-12-07T01:17:45;8.90;;;8.00;;
14121;SDS011;7139;48.114;11.442;2022-12-07T01:20:13;9.43;;;8.17;;
14121;SDS011;7139;48.114;11.442;2022-12-07T01:22:41;9.03;;;8.13;;
14121;SDS011;7139;48.114;11.442;2022-12-07T01:25:10;9.50;;;8.30;;
14121;SDS011;7139;48.114;11.442;2022-12-07T01:27:37;9.50;;;8.30;;
14121;SDS011;7139;48.114;11.442;2022-12-07T01:30:05;9.50;;;8.00;;
14121;SDS011;7139;48.114;11.442;2022-12-07T01:32:33;9.57;;;7.97;;
14121;SDS011;7139;48.114;11.442;2022-12-07T01:35:00;9.67;;;8.70;;
14121;SDS011;7139;48.114;11.442;2022-12-07T01:37:28;9.83;;;8.87;;
14121;SDS011;7139;48.114;11.442;2022-12-07T01:39:59;9.17;;;8.27;;
14121;SDS011;7139;48.114;11.442;2022-12-07T01:42:26;9.70;;;8.63;;
14121;SDS011;7139;48.114;11.442;2022-12-07T01:48:10;8.77;;;7.80;;
14121;SDS011;7139;48.114;11.442;2022-12-07T01:50:39;9.70;;;7.87;;
14121;SDS011;7139;48.114;11.442;2022-12-07T01:53:08;9.17;;;8.23;;
14121;SDS011;7139;48.114;11.442;2022-12-07T01:55:38;9.10;;;8.20;;
14121;SDS011;7139;48.114;11.442;2022-12-07T01:58:08;8.57;;;7.67;;
14121;SDS011;7139;48.114;11.442;2022-12-07T02:00:36;9.47;;;8.17;;
14121;SDS011;7139;48.114;11.442;2022-12-07T02:03:04;8.60;;;7.80;;
14121;SDS011;7139;48.114;11.442;2022-12-07T02:05:33;9.20;;;8.30;;
14121;SDS011;7139;48.114;11.442;2022-12-07T02:08:02;9.20;;;8.27;;
14121;SDS011;7139;48.114;11.442;2022-12-07T02:10:31;9.47;;;8.50;;
14121;SDS011;7139;48.114;11.442;2022-12-07T02:12:59;8.80;;;7.90;;
14121;SDS011;7139;48.114;11.442;2022-12-07T02:15:32;8.50;;;7.67;;
14121;SDS011;7139;48.114;11.442;2022-12-07T02:18:06;10.60;;;8.53;;
14121;SDS011;7139;48.114;11.442;2022-12-07T02:20:40;9.77;;;8.43;;
14121;SDS011;7139;48.114;11.442;2022-12-07T02:29:16;8.93;;;7.97;;
14121;SDS011;7139;48.114;11.442;2022-12-07T02:31:49;8.77;;;7.90;;
14121;SDS011;7139;48.114;11.442;2022-12-07T02:34:24;9.30;;;8.40;;
14121;SDS011;7139;48.114;11.442;2022-12-07T02:36:57;9.70;;;8.70;;
14121;SDS011;7139;48.114;11.442;2022-12-07T02:39:31;9.90;;;8.30;;
14121;SDS011;7139;48.114;11.442;2022-12-07T02:42:06;9.27;;;8.20;;
14121;SDS011;7139;48.114;11.442;2022-12-07T02:44:40;9.03;;;8.13;;
14121;SDS011;7139;48.114;11.442;2022-12-07T02:47:08;9.40;;;8.07;;
14121;SDS011;7139;48.114;11.442;2022-12-07T02:49:38;9.73;;;8.73;;
14121;SDS011;7139;48.114;11.442;2022-12-07T02:52:06;9.23;;;8.33;;
14121;SDS011;7139;48.114;11.442;2022-12-07T02:54:33;9.70;;;8.57;;
14121;SDS011;7139;48.114;11.442;2022-12-07T02:57:01;10.13;;;8.67;;
14121;SDS011;7139;48.114;11.442;2022-12-07T02:59:36;9.63;;;8.67;;
14121;SDS011;7139;48.114;11.442;2022-12-07T03:02:15;9.33;;;8.30;;
14121;SDS011;7139;48.114;11.442;2022-12-07T03:04:50;9.43;;;8.20;;
14121;SDS011;7139;48.114;11.442;2022-12-07T03:07:24;9.67;;;8.67;;
14121;SDS011;7139;48.114;11.442;2022-12-07T03:10:00;9.03;;;8.13;;
14121;SDS011;7139;48.114;11.442;2022-12-07T03:12:35;9.97;;;8.70;;
14121;SDS011;7139;48.114;11.442;2022-12-07T03:15:12;9.87;;;8.87;;
14121;SDS011;7139;48.114;11.442;2022-12-07T03:17:42;9.83;;;8.83;;
14121;SDS011;7139;48.114;11.442;2022-12-07T03:20:13;10.10;;;9.00;;
14121;SDS011;7139;48.114;11.442;2022-12-07T03:22:42;9.97;;;8.97;;
14121;SDS011;7139;48.114;11.442;2022-12-07T03:25:11;11.67;;;8.93;;
14121;SDS011;7139;48.114;11.442;2022-12-07T03:27:43;9.47;;;8.50;;
14121;SDS011;7139;48.114;11.442;2022-12-07T03:30:16;11.30;;;8.87;;
14121;SDS011;7139;48.114;11.442;2022-12-07T03:32:45;10.50;;;9.50;;
14121;SDS011;7139;48.114;11.442;2022-12-07T03:35:19;10.87;;;8.60;;
14121;SDS011;7139;48.114;11.442;2022-12-07T03:37:49;9.50;;;8.50;;
14121;SDS011;7139;48.114;11.442;2022-12-07T03:40:21;9.90;;;8.90;;
14121;SDS011;7139;48.114;11.442;2022-12-07T03:42:53;10.33;;;9.20;;
14121;SDS011;7139;48.114;11.442;2022-12-07T03:45:23;10.20;;;9.20;;
14121;SDS011;7139;48.114;11.442;2022-12-07T03:47:59;10.30;;;9.20;;
14121;SDS011;7139;48.114;11.442;2022-12-07T03:50:34;11.17;;;8.90;;
14121;SDS011;7139;48.114;11.442;2022-12-07T03:53:08;10.67;;;9.30;;
14121;SDS011;7139;48.114;11.442;2022-12-07T03:55:39;9.70;;;8.73;;
14121;SDS011;7139;48.114;11.442;2022-12-07T03:58:10;10.43;;;9.33;;
14121;SDS011;7139;48.114;11.442;2022-12-07T04:00:39;11.33;;;9.13;;
14121;SDS011;7139;48.114;11.442;2022-12-07T04:03:07;10.40;;;8.93;;
14121;SDS011;7139;48.114;11.442;2022-12-07T04:05:34;10.13;;;8.83;;
14121;SDS011;7139;48.114;11.442;2022-12-07T04:08:01;11.50;;;9.47;;
14121;SDS011;7139;48.114;11.442;2022-12-07T04:10:28;11.33;;;9.10;;
14121;SDS011;7139;48.114;11.442;2022-12-07T04:12:55;10.00;;;8.97;;
14121;SDS011;7139;48.114;11.442;2022-12-07T04:15:21;10.20;;;9.20;;
14121;SDS011;7139;48.114;11.442;2022-12-07T04:17:50;10.20;;;9.20;;
14121;SDS011;7139;48.114;11.442;2022-12-07T04:20:16;11.23;;;9.90;;
14121;SDS011;7139;48.114;11.442;2022-12-07T04:22:43;12.00;;;10.33;;
14121;SDS011;7139;48.114;11.442;2022-12-07T04:25:10;11.07;;;9.50;;
14121;SDS011;7139;48.114;11.442;2022-12-07T04:27:37;11.20;;;9.83;;
14121;SDS011;7139;48.114;11.442;2022-12-07T04:30:04;11.80;;;9.57;;
14121;SDS011;7139;48.114;11.442;2022-12-07T04:32:32;11.07;;;9.73;;
14121;SDS011;7139;48.114;11.442;2022-12-07T04:35:00;11.47;;;10.27;;
14121;SDS011;7139;48.114;11.442;2022-12-07T04:37:27;10.67;;;9.57;;
14121;SDS011;7139;48.114;11.442;2022-12-07T04:39:54;12.43;;;10.07;;
14121;SDS011;7139;48.114;11.442;2022-12-07T04:42:20;11.40;;;10.20;;
14121;SDS011;7139;48.114;11.442;2022-12-07T04:44:47;11.33;;;10.13;;
14121;SDS011;7139;48.114;11.442;2022-12-07T04:47:14;11.93;;;10.50;;
14121;SDS011;7139;48.114;11.442;2022-12-07T04:49:41;11.17;;;9.97;;
14121;SDS011;7139;48.114;11.442;2022-12-07T04:52:09;11.87;;;10.17;;
14121;SDS011;7139;48.114;11.442;2022-12-07T04:54:35;11.83;;;10.03;;
14121;SDS011;7139;48.114;11.442;2022-12-07T04:57:02;10.93;;;9.73;;
14121;SDS011;7139;48.114;11.442;2022-12-07T04:59:29;10.57;;;9.47;;
14121;SDS011;7139;48.114;11.442;2022-12-07T05:01:56;12.40;;;10.57;;
14121;SDS011;7139;48.114;11.442;2022-12-07T05:04:23;12.23;;;9.37;;
14121;SDS011;7139;48.114;11.442;2022-12-07T05:06:49;12.33;;;10.63;;
14121;SDS011;7139;48.114;11.442;2022-12-07T05:09:18;11.13;;;9.37;;
14121;SDS011;7139;48.114;11.442;2022-12-07T05:11:45;10.70;;;9.37;;
14121;SDS011;7139;48.114;11.442;2022-12-07T05:14:12;11.83;;;9.80;;
14121;SDS011;7139;48.114;11.442;2022-12-07T05:16:41;11.60;;;10.40;;
14121;SDS011;7139;48.114;11.442;2022-12-07T05:19:09;11.47;;;9.77;;
14121;SDS011;7139;48.114;11.442;2022-12-07T05:21:36;12.37;;;9.57;;
14121;SDS011;7139;48.114;11.442;2022-12-07T05:24:04;11.40;;;9.30;;
14121;SDS011;7139;48.114;11.442;2022-12-07T05:26:33;11.13;;;9.87;;
14121;SDS011;7139;48.114;11.442;2022-12-07T05:29:00;10.53;;;9.43;;
14121;SDS011;7139;48.114;11.442;2022-12-07T05:31:27;11.07;;;9.87;;
14121;SDS011;7139;48.114;11.442;2022-12-07T05:33:54;11.67;;;9.53;;
14121;SDS011;7139;48.114;11.442;2022-12-07T05:36:21;10.40;;;9.13;;
14121;SDS011;7139;48.114;11.442;2022-12-07T05:38:48;9.70;;;8.80;;
14121;SDS011;7139;48.114;11.442;2022-12-07T05:41:16;10.00;;;8.40;;
14121;SDS011;7139;48.114;11.442;2022-12-07T05:44:03;8.43;;;7.63;;
14121;SDS011;7139;48.114;11.442;2022-12-07T05:46:30;8.83;;;7.97;;
14121;SDS011;7139;48.114;11.442;2022-12-07T05:48:57;9.73;;;8.63;;
14121;SDS011;7139;48.114;11.442;2022-12-07T05:51:24;9.50;;;8.50;;
14121;SDS011;7139;48.114;11.442;2022-12-07T05:53:51;9.20;;;8.30;;
14121;SDS011;7139;48.114;11.442;2022-12-07T05:56:18;10.60;;;9.50;;
14121;SDS011;7139;48.114;11.442;2022-12-07T05:58:45;10.10;;;9.10;;
14121;SDS011;7139;48.114;11.442;2022-12-07T06:01:30;10.50;;;8.60;;
14121;SDS011;7139;48.114;11.442;2022-12-07T06:03:57;10.33;;;8.90;;
14121;SDS011;7139;48.114;11.442;2022-12-07T06:06:24;10.57;;;9.47;;
14121;SDS011;7139;48.114;11.442;2022-12-07T06:08:51;10.57;;;9.57;;
14121;SDS011;7139;48.114;11.442;2022-12-07T06:11:17;11.60;;;9.90;;
14121;SDS011;7139;48.114;11.442;2022-12-07T06:14:02;10.40;;;9.30;;
14121;SDS011;7139;48.114;11.442;2022-12-07T06:16:30;11.30;;;10.20;;
14121;SDS011;7139;48.114;11.442;2022-12-07T06:18:57;11.67;;;9.73;;
14121;SDS011;7139;48.114;11.442;2022-12-07T06:21:24;12.73;;;10.57;;
14121;SDS011;7139;48.114;11.442;2022-12-07T06:23:51;13.00;;;10.30;;
14121;SDS011;7139;48.114;11.442;2022-12-07T06:26:18;14.33;;;10.30;;
14121;SDS011;7139;48.114;11.442;2022-12-07T06:28:45;12.60;;;10.57;;
14121;SDS011;7139;48.114;11.442;2022-12-07T06:31:12;11.90;;;9.60;;
14121;SDS011;7139;48.114;11.442;2022-12-07T06:33:41;11.17;;;9.80;;
14121;SDS011;7139;48.114;11.442;2022-12-07T06:36:08;11.93;;;10.10;;
14121;SDS011;7139;48.114;11.442;2022-12-07T06:38:35;11.13;;;10.03;;
14121;SDS011;7139;48.114;11.442;2022-12-07T06:41:02;11.50;;;9.87;;
14121;SDS011;7139;48.114;11.442;2022-12-07T06:43:29;11.43;;;9.93;;
14121;SDS011;7139;48.114;11.442;2022-12-07T06:45:56;10.70;;;9.47;;
14121;SDS011;7139;48.114;11.442;2022-12-07T06:48:22;12.80;;;10.00;;
14121;SDS011;7139;48.114;11.442;2022-12-07T06:50:50;10.83;;;9.73;;
14121;SDS011;7139;48.114;11.442;2022-12-07T06:53:17;11.37;;;9.40;;
14121;SDS011;7139;48.114;11.442;2022-12-07T06:55:44;11.13;;;9.70;;
14121;SDS011;7139;48.114;11.442;2022-12-07T06:58:11;10.40;;;9.33;;
14121;SDS011;7139;48.114;11.442;2022-12-07T07:00:38;11.63;;;10.43;;
14121;SDS011;7139;48.114;11.442;2022-12-07T07:03:04;14.50;;;11.03;;
14121;SDS011;7139;48.114;11.442;2022-12-07T07:05:31;12.83;;;10.70;;
14121;SDS011;7139;48.114;11.442;2022-12-07T07:08:07;12.00;;;10.40;;
14121;SDS011;7139;48.114;11.442;2022-12-07T07:10:34;11.10;;;9.90;;
14121;SDS011;7139;48.114;11.442;2022-12-07T07:13:02;12.33;;;10.07;;
14121;SDS011;7139;48.114;11.442;2022-12-07T07:15:29;11.67;;;10.40;;
14121;SDS011;7139;48.114;11.442;2022-12-07T07:17:56;11.53;;;10.03;;
14121;SDS011;7139;48.114;11.442;2022-12-07T07:20:23;12.50;;;9.80;;
14121;SDS011;7139;48.114;11.442;2022-12-07T07:22:50;12.37;;;11.03;;
14121;SDS011;7139;48.114;11.442;2022-12-07T07:25:21;11.97;;;10.67;;
14121;SDS011;7139;48.114;11.442;2022-12-07T07:27:47;12.60;;;10.47;;
14121;SDS011;7139;48.114;11.442;2022-12-07T07:30:14;11.63;;;10.23;;
14121;SDS011;7139;48.114;11.442;2022-12-07T07:32:41;12.70;;;10.10;;
14121;SDS011;7139;48.114;11.442;2022-12-07T07:35:08;13.10;;;11.17;;
14121;SDS011;7139;48.114;11.442;2022-12-07T07:37:35;13.70;;;11.80;;
14121;SDS011;7139;48.114;11.442;2022-12-07T07:40:02;12.97;;;11.63;;
14121;SDS011;7139;48.114;11.442;2022-12-07T07:42:30;14.07;;;12.23;;
14121;SDS011;7139;48.114;11.442;2022-12-07T07:44:57;13.30;;;11.73;;
14121;SDS011;7139;48.114;11.442;2022-12-07T07:47:24;14.33;;;11.87;;
14121;SDS011;7139;48.114;11.442;2022-12-07T07:49:51;17.47;;;13.30;;
14121;SDS011;7139;48.114;11.442;2022-12-07T07:52:17;15.77;;;12.80;;
14121;SDS011;7139;48.114;11.442;2022-12-07T07:54:44;14.73;;;12.13;;
14121;SDS011;7139;48.114;11.442;2022-12-07T07:57:11;13.83;;;12.33;;
14121;SDS011;7139;48.114;11.442;2022-12-07T07:59:39;16.17;;;13.07;;
14121;SDS011;7139;48.114;11.442;2022-12-07T08:02:06;15.77;;;12.60;;
14121;SDS011;7139;48.114;11.442;2022-12-07T08:04:47;15.00;;;12.53;;
14121;SDS011;7139;48.114;11.442;2022-12-07T08:07:14;13.83;;;11.80;;
14121;SDS011;7139;48.114;11.442;2022-12-07T08:09:41;14.27;;;12.77;;
14121;SDS011;7139;48.114;11.442;2022-12-07T08:12:08;14.40;;;11.87;;
14121;SDS011;7139;48.114;11.442;2022-12-07T08:14:35;13.90;;;12.50;;
14121;SDS011;7139;48.114;11.442;2022-12-07T08:17:03;13.80;;;12.23;;
14121;SDS011;7139;48.114;11.442;2022-12-07T08:19:30;14.50;;;12.57;;
14121;SDS011;7139;48.114;11.442;2022-12-07T08:21:57;14.93;;;12.67;;
14121;SDS011;7139;48.114;11.442;2022-12-07T08:24:24;15.23;;;12.53;;
14121;SDS011;7139;48.114;11.442;2022-12-07T08:26:51;14.70;;;13.10;;
14121;SDS011;7139;48.114;11.442;2022-12-07T08:29:18;15.73;;;13.03;;
14121;SDS011;7139;48.114;11.442;2022-12-07T08:31:45;14.67;;;12.73;;
14121;SDS011;7139;48.114;11.442;2022-12-07T08:34:14;14.27;;;12.50;;
14121;SDS011;7139;48.114;11.442;2022-12-07T08:36:40;14.70;;;12.07;;
14121;SDS011;7139;48.114;11.442;2022-12-07T08:39:07;13.87;;;12.37;;
14121;SDS011;7139;48.114;11.442;2022-12-07T08:41:35;13.60;;;11.97;;
14121;SDS011;7139;48.114;11.442;2022-12-07T08:44:01;16.20;;;13.80;;
14121;SDS011;7139;48.114;11.442;2022-12-07T08:46:30;17.20;;;13.50;;
14121;SDS011;7139;48.114;11.442;2022-12-07T08:49:03;15.70;;;13.17;;
14121;SDS011;7139;48.114;11.442;2022-12-07T08:51:35;13.83;;;11.57;;
14121;SDS011;7139;48.114;11.442;2022-12-07T08:54:03;14.73;;;12.47;;
14121;SDS011;7139;48.114;11.442;2022-12-07T08:56:32;15.33;;;12.93;;
14121;SDS011;7139;48.114;11.442;2022-12-07T08:59:00;14.17;;;12.10;;
14121;SDS011;7139;48.114;11.442;2022-12-07T09:01:27;15.00;;;12.43;;
14121;SDS011;7139;48.114;11.442;2022-12-07T09:03:54;13.30;;;11.73;;
14121;SDS011;7139;48.114;11.442;2022-12-07T09:06:21;14.90;;;12.40;;
14121;SDS011;7139;48.114;11.442;2022-12-07T09:08:49;13.33;;;11.90;;
14121;SDS011;7139;48.114;11.442;2022-12-07T09:11:21;14.63;;;12.83;;
14121;SDS011;7139;48.114;11.442;2022-12-07T09:13:47;14.13;;;12.67;;
14121;SDS011;7139;48.114;11.442;2022-12-07T09:16:14;12.87;;;11.50;;
14121;SDS011;7139;48.114;11.442;2022-12-07T09:18:41;13.80;;;12.23;;
14121;SDS011;7139;48.114;11.442;2022-12-07T09:21:08;14.47;;;12.23;;
14121;SDS011;7139;48.114;11.442;2022-12-07T09:23:35;14.10;;;12.37;;
14121;SDS011;7139;48.114;11.442;2022-12-07T09:26:03;15.70;;;12.93;;
14121;SDS011;7139;48.114;11.442;2022-12-07T09:28:30;14.50;;;12.77;;
14121;SDS011;7139;48.114;11.442;2022-12-07T09:30:57;14.97;;;12.50;;
14121;SDS011;7139;48.114;11.442;2022-12-07T09:33:24;13.70;;;12.10;;
14121;SDS011;7139;48.114;11.442;2022-12-07T09:35:51;16.07;;;12.40;;
14121;SDS011;7139;48.114;11.442;2022-12-07T09:38:18;13.97;;;12.47;;
14121;SDS011;7139;48.114;11.442;2022-12-07T09:40:46;13.47;;;12.07;;
14121;SDS011;7139;48.114;11.442;2022-12-07T09:43:15;14.13;;;12.30;;
14121;SDS011;7139;48.114;11.442;2022-12-07T09:45:44;13.60;;;12.00;;
14121;SDS011;7139;48.114;11.442;2022-12-07T09:48:14;13.13;;;11.67;;
14121;SDS011;7139;48.114;11.442;2022-12-07T09:50:44;13.40;;;12.00;;
14121;SDS011;7139;48.114;11.442;2022-12-07T09:53:21;12.80;;;11.40;;
14121;SDS011;7139;48.114;11.442;2022-12-07T09:55:51;13.73;;;11.80;;
14121;SDS011;7139;48.114;11.442;2022-12-07T10:00:52;13.40;;;11.07;;
14121;SDS011;7139;48.114;11.442;2022-12-07T10:03:21;13.13;;;11.73;;
14121;SDS011;7139;48.114;11.442;2022-12-07T10:06:03;12.67;;;10.87;;
14121;SDS011;7139;48.114;11.442;2022-12-07T10:08:31;12.40;;;10.80;;
14121;SDS011;7139;48.114;11.442;2022-12-07T10:10:58;13.10;;;11.27;;
14121;SDS011;7139;48.114;11.442;2022-12-07T10:13:35;12.77;;;10.77;;
14121;SDS011;7139;48.114;11.442;2022-12-07T10:16:24;12.87;;;11.43;;
14121;SDS011;7139;48.114;11.442;2022-12-07T10:19:11;11.73;;;9.90;;
14121;SDS011;7139;48.114;11.442;2022-12-07T10:21:58;11.50;;;10.10;;
14121;SDS011;7139;48.114;11.442;2022-12-07T10:24:27;12.30;;;9.93;;
14121;SDS011;7139;48.114;11.442;2022-12-07T10:26:54;12.07;;;9.37;;
14121;SDS011;7139;48.114;11.442;2022-12-07T10:29:23;10.33;;;9.27;;
14121;SDS011;7139;48.114;11.442;2022-12-07T10:31:54;9.93;;;8.93;;
14121;SDS011;7139;48.114;11.442;2022-12-07T10:34:28;9.77;;;8.77;;
14121;SDS011;7139;48.114;11.442;2022-12-07T10:37:07;9.97;;;8.77;;
14121;SDS011;7139;48.114;11.442;2022-12-07T10:39:42;9.80;;;8.57;;
14121;SDS011;7139;48.114;11.442;2022-12-07T10:42:17;8.50;;;7.60;;
14121;SDS011;7139;48.114;11.442;2022-12-07T10:44:47;10.43;;;9.33;;
14121;SDS011;7139;48.114;11.442;2022-12-07T10:47:19;9.50;;;8.50;;
14121;SDS011;7139;48.114;11.442;2022-12-07T10:56:18;9.37;;;7.80;;
14121;SDS011;7139;48.114;11.442;2022-12-07T10:59:03;8.80;;;7.90;;
14121;SDS011;7139;48.114;11.442;2022-12-07T11:01:45;8.47;;;7.57;;
14121;SDS011;7139;48.114;11.442;2022-12-07T11:04:18;9.77;;;8.77;;
14121;SDS011;7139;48.114;11.442;2022-12-07T11:06:57;9.33;;;8.33;;
14121;SDS011;7139;48.114;11.442;2022-12-07T11:12:28;10.10;;;8.50;;
14121;SDS011;7139;48.114;11.442;2022-12-07T11:15:08;9.43;;;7.90;;
14121;SDS011;7139;48.114;11.442;2022-12-07T11:17:45;8.37;;;7.57;;
14121;SDS011;7139;48.114;11.442;2022-12-07T11:20:24;8.27;;;7.47;;
14121;SDS011;7139;48.114;11.442;2022-12-07T11:23:03;9.07;;;8.17;;
14121;SDS011;7139;48.114;11.442;2022-12-07T11:25:38;9.30;;;8.30;;
14121;SDS011;7139;48.114;11.442;2022-12-07T11:28:15;8.93;;;7.67;;
14121;SDS011;7139;48.114;11.442;2022-12-07T11:30:51;9.17;;;7.60;;
14121;SDS011;7139;48.114;11.442;2022-12-07T11:33:35;8.60;;;7.70;;
14121;SDS011;7139;48.114;11.442;2022-12-07T11:36:12;9.90;;;7.80;;
14121;SDS011;7139;48.114;11.442;2022-12-07T11:38:50;8.73;;;7.83;;
14121;SDS011;7139;48.114;11.442;2022-12-07T11:41:21;8.23;;;7.30;;
14121;SDS011;7139;48.114;11.442;2022-12-07T11:43:53;8.20;;;7.30;;
14121;SDS011;7139;48.114;11.442;2022-12-07T11:46:26;8.47;;;7.20;;
14121;SDS011;7139;48.114;11.442;2022-12-07T11:49:01;8.90;;;7.63;;
14121;SDS011;7139;48.114;11.442;2022-12-07T11:51:34;8.00;;;7.20;;
14121;SDS011;7139;48.114;11.442;2022-12-07T11:54:05;8.70;;;7.80;;
14121;SDS011;7139;48.114;11.442;2022-12-07T11:56:39;7.60;;;6.77;;
14121;SDS011;7139;48.114;11.442;2022-12-07T11:59:08;9.83;;;8.53;;
14121;SDS011;7139;48.114;11.442;2022-12-07T12:01:42;10.10;;;8.43;;
14121;SDS011;7139;48.114;11.442;2022-12-07T12:04:29;8.57;;;7.47;;
14121;SDS011;7139;48.114;11.442;2022-12-07T12:07:01;9.00;;;7.50;;
14121;SDS011;7139;48.114;11.442;2022-12-07T12:09:32;8.60;;;7.57;;
14121;SDS011;7139;48.114;11.442;2022-12-07T12:14:59;10.17;;;8.17;;
14121;SDS011;7139;48.114;11.442;2022-12-07T12:17:49;9.20;;;8.30;;
14121;SDS011;7139;48.114;11.442;2022-12-07T12:20:44;9.50;;;8.50;;
14121;SDS011;7139;48.114;11.442;2022-12-07T12:23:15;8.90;;;8.00;;
14121;SDS011;7139;48.114;11.442;2022-12-07T12:25:45;9.47;;;7.53;;
14121;SDS011;7139;48.114;11.442;2022-12-07T12:28:22;11.07;;;8.70;;
14121;SDS011;7139;48.114;11.442;2022-12-07T12:31:05;9.87;;;7.87;;
14121;SDS011;7139;48.114;11.442;2022-12-07T12:33:35;10.97;;;8.70;;
14121;SDS011;7139;48.114;11.442;2022-12-07T12:36:20;9.17;;;8.23;;
14121;SDS011;7139;48.114;11.442;2022-12-07T12:38:52;9.27;;;8.27;;
14121;SDS011;7139;48.114;11.442;2022-12-07T12:41:52;9.57;;;8.03;;
14121;SDS011;7139;48.114;11.442;2022-12-07T12:44:42;9.47;;;8.20;;
14121;SDS011;7139;48.114;11.442;2022-12-07T12:47:55;8.40;;;7.50;;
14121;SDS011;7139;48.114;11.442;2022-12-07T12:50:24;9.07;;;7.47;;
14121;SDS011;7139;48.114;11.442;2022-12-07T12:52:55;8.50;;;7.47;;
14121;SDS011;7139;48.114;11.442;2022-12-07T12:58:38;9.90;;;7.97;;
14121;SDS011;7139;48.114;11.442;2022-12-07T13:04:24;8.83;;;7.63;;
14121;SDS011;7139;48.114;11.442;2022-12-07T13:07:12;9.23;;;7.57;;
14121;SDS011;7139;48.114;11.442;2022-12-07T13:10:01;8.50;;;7.60;;
14121;SDS011;7139;48.114;11.442;2022-12-07T13:12:29;8.27;;;7.47;;
14121;SDS011;7139;48.114;11.442;2022-12-07T13:14:57;8.33;;;7.37;;
14121;SDS011;7139;48.114;11.442;2022-12-07T13:23:16;9.00;;;7.83;;
14121;SDS011;7139;48.114;11.442;2022-12-07T13:26:17;8.47;;;7.57;;
14121;SDS011;7139;48.114;11.442;2022-12-07T13:28:45;7.80;;;6.77;;
14121;SDS011;7139;48.114;11.442;2022-12-07T13:31:25;9.00;;;7.30;;
14121;SDS011;7139;48.114;11.442;2022-12-07T13:34:03;13.27;;;7.57;;
14121;SDS011;7139;48.114;11.442;2022-12-07T13:36:32;7.30;;;6.50;;
14121;SDS011;7139;48.114;11.442;2022-12-07T13:39:18;9.97;;;6.47;;
14121;SDS011;7139;48.114;11.442;2022-12-07T13:41:50;7.77;;;6.07;;
14121;SDS011;7139;48.114;11.442;2022-12-07T13:44:18;10.07;;;6.23;;
14121;SDS011;7139;48.114;11.442;2022-12-07T13:46:48;9.63;;;6.53;;
14121;SDS011;7139;48.114;11.442;2022-12-07T13:49:21;9.00;;;6.60;;
14121;SDS011;7139;48.114;11.442;2022-12-07T13:51:49;7.63;;;6.27;;
14121;SDS011;7139;48.114;11.442;2022-12-07T13:54:17;8.00;;;6.10;;
14121;SDS011;7139;48.114;11.442;2022-12-07T13:56:47;7.40;;;5.73;;
14121;SDS011;7139;48.114;11.442;2022-12-07T13:59:18;6.37;;;5.43;;
14121;SDS011;7139;48.114;11.442;2022-12-07T14:01:47;7.17;;;6.27;;
14121;SDS011;7139;48.114;11.442;2022-12-07T14:04:19;6.93;;;5.20;;
14121;SDS011;7139;48.114;11.442;2022-12-07T14:06:55;6.40;;;4.90;;
14121;SDS011;7139;48.114;11.442;2022-12-07T14:09:23;6.93;;;5.40;;
14121;SDS011;7139;48.114;11.442;2022-12-07T14:11:53;8.13;;;5.30;;
14121;SDS011;7139;48.114;11.442;2022-12-07T14:14:22;8.00;;;5.70;;
14121;SDS011;7139;48.114;11.442;2022-12-07T14:16:55;6.20;;;5.13;;
14121;SDS011;7139;48.114;11.442;2022-12-07T14:22:18;5.93;;;4.73;;
14121;SDS011;7139;48.114;11.442;2022-12-07T14:24:48;5.87;;;5.10;;
14121;SDS011;7139;48.114;11.442;2022-12-07T14:27:20;6.60;;;5.03;;
14121;SDS011;7139;48.114;11.442;2022-12-07T14:29:50;6.23;;;5.00;;
14121;SDS011;7139;48.114;11.442;2022-12-07T14:32:19;7.83;;;4.87;;
14121;SDS011;7139;48.114;11.442;2022-12-07T14:34:53;6.50;;;5.70;;
14121;SDS011;7139;48.114;11.442;2022-12-07T14:37:21;8.47;;;6.70;;
14121;SDS011;7139;48.114;11.442;2022-12-07T14:39:48;7.27;;;5.23;;
14121;SDS011;7139;48.114;11.442;2022-12-07T14:42:15;7.70;;;5.30;;
14121;SDS011;7139;48.114;11.442;2022-12-07T14:44:43;7.03;;;5.50;;
14121;SDS011;7139;48.114;11.442;2022-12-07T14:47:16;8.57;;;5.40;;
14121;SDS011;7139;48.114;11.442;2022-12-07T14:49:43;6.53;;;4.83;;
14121;SDS011;7139;48.114;11.442;2022-12-07T14:52:12;7.07;;;5.60;;
14121;SDS011;7139;48.114;11.442;2022-12-07T14:54:42;9.00;;;6.03;;
14121;SDS011;7139;48.114;11.442;2022-12-07T14:57:10;7.00;;;5.37;;
14121;SDS011;7139;48.114;11.442;2022-12-07T14:59:37;7.43;;;5.60;;
14121;SDS011;7139;48.114;11.442;2022-12-07T15:02:05;6.13;;;5.23;;
14121;SDS011;7139;48.114;11.442;2022-12-07T15:04:32;10.13;;;5.57;;
14121;SDS011;7139;48.114;11.442;2022-12-07T15:07:00;9.20;;;5.47;;
14121;SDS011;7139;48.114;11.442;2022-12-07T15:09:29;8.77;;;5.53;;
14121;SDS011;7139;48.114;11.442;2022-12-07T15:11:56;8.10;;;5.30;;
14121;SDS011;7139;48.114;11.442;2022-12-07T15:14:22;13.43;;;5.40;;
14121;SDS011;7139;48.114;11.442;2022-12-07T15:16:49;14.63;;;5.73;;
14121;SDS011;7139;48.114;11.442;2022-12-07T15:19:18;15.20;;;6.33;;
14121;SDS011;7139;48.114;11.442;2022-12-07T15:21:48;12.07;;;5.73;;
14121;SDS011;7139;48.114;11.442;2022-12-07T15:24:15;9.13;;;5.33;;
14121;SDS011;7139;48.114;11.442;2022-12-07T15:26:42;15.10;;;6.20;;
14121;SDS011;7139;48.114;11.442;2022-12-07T15:29:09;20.23;;;6.50;;
14121;SDS011;7139;48.114;11.442;2022-12-07T15:31:36;10.83;;;6.23;;
14121;SDS011;7139;48.114;11.442;2022-12-07T15:34:04;13.23;;;6.50;;
14121;SDS011;7139;48.114;11.442;2022-12-07T15:36:33;18.70;;;6.70;;